Grand Meadow, Minnesota
Current Conditions -  °F | °C
As of 10:54 PM on Wednesday 22 Oct 2014 (Local Time) from KRST Reporting Station
Broken Clouds Broken Clouds  
Wind Chill: 52°   Ceiling: 9500
Heat Index: 52°   Visibility: 10mi
Dew Point: 39°   Wind: 16mph
Humidity: 61%   Direction: 170°S
Pressure: 30.09"   Gusts: 24mph
Location:  43.71°N, 92.57°W
Report Text: KRST 230354Z AUTO 17014G21KT 10SM BKN095 11/04 A3009 RMK AO2 SLP195 T01110039
Loading
Personal Weather Stations






























Interactive Weather Map
Tropical Storm Tracking
New forecast layout! Learn more

10-Day Weather Forecast

Advertisements
Track Severe Weather on mobile